Time;durP1;ratioP1;P1;durP2;ratioP2;P2;SDS_P1;SDS_P2;PMS_P1;PMS_P2;Temp;Humidity;BMP_temperature;BMP_pressure;BME280_temperature;BME280_humidity;BME280_pressure;Samples;Min_cycle;Max_cycle;Signal;HPM_P1;HPM_P2
2022/05/13 00:01:14;;;;;;;4.15;3.45;;;22.10;45.60;;;;;;5093813;28;20028;-69
2022/05/13 00:03:40;;;;;;;3.97;3.30;;;22.20;45.70;;;;;;5093707;28;20028;-69
2022/05/13 00:06:09;;;;;;;4.22;3.20;;;22.10;45.80;;;;;;5093822;28;20032;-68
2022/05/13 00:08:35;;;;;;;4.90;3.75;;;22.10;46.50;;;;;;5093519;28;20032;-68
2022/05/13 00:11:03;;;;;;;4.00;3.60;;;22.10;45.90;;;;;;5094333;28;20024;-68
2022/05/13 00:13:29;;;;;;;3.95;3.50;;;22.10;46.00;;;;;;5079558;28;20046;-69
2022/05/13 00:15:55;;;;;;;4.47;3.50;;;22.10;46.00;;;;;;5097604;28;20463;-68
2022/05/13 00:18:21;;;;;;;5.07;3.60;;;22.10;46.10;;;;;;5079248;28;20031;-69
2022/05/13 00:20:47;;;;;;;4.72;3.85;;;22.00;46.10;;;;;;5097792;28;20021;-68
2022/05/13 00:23:13;;;;;;;4.20;3.70;;;22.10;46.20;;;;;;5097748;28;20032;-68
2022/05/13 00:25:39;;;;;;;4.90;3.80;;;22.00;46.20;;;;;;5097813;28;20059;-68
2022/05/13 00:28:07;;;;;;;5.68;3.92;;;22.00;46.40;;;;;;5097591;28;20456;-69
2022/05/13 00:30:36;;;;;;;5.32;3.65;;;22.00;46.40;;;;;;5097517;28;20024;-69
2022/05/13 00:33:02;;;;;;;5.97;4.10;;;22.00;46.50;;;;;;5097176;28;20024;-69
2022/05/13 00:35:28;;;;;;;4.55;3.90;;;22.00;46.60;;;;;;5097820;28;20433;-68
2022/05/13 00:37:54;;;;;;;5.28;3.90;;;21.90;46.60;;;;;;5097223;28;20030;-68
2022/05/13 00:40:21;;;;;;;5.38;4.03;;;22.00;46.70;;;;;;5097589;28;20046;-69
2022/05/13 00:42:48;;;;;;;6.10;4.30;;;21.90;46.70;;;;;;5097463;28;20030;-69
2022/05/13 00:45:15;;;;;;;6.30;4.75;;;21.90;46.80;;;;;;5097389;28;20024;-69
2022/05/13 00:47:42;;;;;;;6.35;4.53;;;21.90;46.80;;;;;;5079073;28;20039;-69
2022/05/13 00:50:10;;;;;;;5.50;4.43;;;21.90;46.90;;;;;;5079076;28;20058;-69
2022/05/13 00:52:38;;;;;;;4.95;4.45;;;21.90;47.00;;;;;;5078978;28;20032;-69
2022/05/13 00:55:09;;;;;;;5.30;4.70;;;21.90;47.10;;;;;;5097418;28;20024;-69
2022/05/13 00:57:35;;;;;;;6.68;4.28;;;21.90;47.10;;;;;;5096884;28;20100;-69
2022/05/13 01:00:04;;;;;;;5.50;4.70;;;21.80;47.10;;;;;;5096934;28;20553;-69
2022/05/13 01:02:32;;;;;;;6.47;5.20;;;21.80;47.20;;;;;;5096529;28;20024;-69
2022/05/13 01:04:59;;;;;;;5.70;5.07;;;21.90;47.30;;;;;;5096783;28;20039;-69
2022/05/13 01:07:25;;;;;;;6.72;5.07;;;21.80;47.30;;;;;;5096682;28;20129;-69
2022/05/13 01:09:56;;;;;;;6.03;4.80;;;21.80;47.40;;;;;;5096748;28;20137;-69
2022/05/13 01:12:27;;;;;;;6.00;5.13;;;21.80;47.50;;;;;;5096652;28;20017;-70
2022/05/13 01:14:58;;;;;;;5.53;4.93;;;21.80;47.50;;;;;;5096551;28;20378;-69
2022/05/13 01:20:17;;;;;;;8.02;5.30;;;21.80;47.70;;;;;;5096805;28;20039;-69
2022/05/13 01:22:52;;;;;;;6.00;5.35;;;21.80;47.70;;;;;;5096727;28;20361;-70
2022/05/13 01:25:20;;;;;;;6.82;5.15;;;21.80;47.80;;;;;;5082113;28;20055;-69
2022/05/13 01:27:48;;;;;;;8.15;5.32;;;21.80;47.90;;;;;;5096631;28;20024;-69
2022/05/13 01:30:21;;;;;;;6.93;5.20;;;21.80;48.00;;;;;;5096571;28;20032;-69
2022/05/13 01:32:47;;;;;;;5.85;5.25;;;21.80;48.10;;;;;;5096474;28;20035;-70
2022/05/13 01:35:13;;;;;;;7.80;5.45;;;21.80;48.10;;;;;;5096137;28;20091;-70
2022/05/13 01:37:39;;;;;;;7.85;5.55;;;21.70;48.10;;;;;;5096041;28;20085;-69
2022/05/13 01:40:07;;;;;;;6.25;5.65;;;21.70;48.20;;;;;;5096416;28;20032;-69
2022/05/13 01:42:33;;;;;;;6.95;5.75;;;21.70;48.20;;;;;;5096198;28;20454;-69
2022/05/13 01:44:59;;;;;;;7.63;5.60;;;21.70;48.30;;;;;;5096294;28;20032;-69
2022/05/13 01:47:25;;;;;;;8.35;5.90;;;21.70;48.30;;;;;;5096354;28;20470;-69
2022/05/13 01:49:52;;;;;;;6.50;5.70;;;21.70;48.40;;;;;;5095879;28;20028;-69
2022/05/13 01:52:18;;;;;;;6.95;5.95;;;21.70;48.40;;;;;;5096007;28;20035;-69
2022/05/13 01:54:44;;;;;;;7.18;5.85;;;21.70;48.50;;;;;;5096012;28;20028;-69
2022/05/13 01:57:09;;;;;;;7.00;5.90;;;21.70;48.60;;;;;;5096030;28;20027;-69
2022/05/13 01:59:35;;;;;;;7.28;5.90;;;21.70;48.60;;;;;;5095836;28;20043;-69
2022/05/13 02:02:01;;;;;;;7.50;6.20;;;21.70;48.70;;;;;;5096048;28;20115;-70
2022/05/13 02:04:26;;;;;;;6.93;5.82;;;21.70;48.70;;;;;;5095798;28;20028;-69
2022/05/13 02:06:52;;;;;;;8.40;6.00;;;21.70;48.80;;;;;;5094489;28;20356;-69
2022/05/13 02:09:18;;;;;;;6.55;5.47;;;21.70;48.90;;;;;;5095696;28;20028;-69
2022/05/13 02:11:45;;;;;;;6.50;5.80;;;21.70;48.90;;;;;;5095698;28;20080;-69
2022/05/13 02:14:13;;;;;;;7.97;5.85;;;21.70;48.90;;;;;;5095394;28;20028;-69
2022/05/13 02:16:38;;;;;;;6.03;5.43;;;21.70;49.00;;;;;;5094181;28;20151;-69
2022/05/13 02:19:04;;;;;;;9.70;6.85;;;21.70;49.00;;;;;;5095407;28;20034;-69
2022/05/13 02:21:30;;;;;;;6.80;5.90;;;21.60;49.00;;;;;;5095534;28;20119;-69
2022/05/13 02:23:55;;;;;;;7.70;6.22;;;21.70;49.10;;;;;;5094129;28;20111;-69
2022/05/13 02:26:21;;;;;;;6.95;6.00;;;21.60;49.10;;;;;;5095523;28;20060;-69
2022/05/13 02:28:47;;;;;;;7.03;5.72;;;21.60;49.10;;;;;;5095227;28;20480;-69
2022/05/13 02:31:13;;;;;;;7.78;5.68;;;21.60;49.20;;;;;;5095170;28;20024;-69
2022/05/13 02:33:40;;;;;;;9.02;6.25;;;21.60;49.30;;;;;;5094197;28;20531;-69
2022/05/13 02:36:07;;;;;;;7.03;5.90;;;21.60;49.30;;;;;;5095201;28;20020;-68
2022/05/13 02:38:33;;;;;;;7.85;5.80;;;21.70;49.40;;;;;;5095034;28;20027;-70
2022/05/13 02:41:11;;;;;;;7.65;6.05;;;21.70;49.50;;;;;;5095282;28;20531;-69
2022/05/13 02:43:52;;;;;;;8.27;6.68;;;21.60;49.50;;;;;;5095040;28;20477;-69
2022/05/13 02:46:24;;;;;;;6.80;5.95;;;21.70;49.50;;;;;;5094857;28;20424;-69
2022/05/13 02:48:50;;;;;;;6.47;5.88;;;21.70;49.60;;;;;;5095368;28;20031;-69
2022/05/13 02:51:16;;;;;;;7.00;6.05;;;21.70;49.60;;;;;;5095385;28;20454;-69
2022/05/13 02:53:42;;;;;;;8.82;6.32;;;21.70;49.60;;;;;;5076971;28;20118;-69
2022/05/13 02:56:08;;;;;;;6.75;5.85;;;21.70;49.70;;;;;;5094605;28;20106;-69
2022/05/13 02:58:38;;;;;;;7.13;6.13;;;21.70;49.70;;;;;;5094408;28;20027;-69
2022/05/13 03:01:05;;;;;;;7.88;6.07;;;21.70;49.80;;;;;;5094725;28;20085;-69
2022/05/13 03:03:31;;;;;;;8.98;6.38;;;21.70;49.80;;;;;;5095122;28;20490;-69
2022/05/13 03:05:57;;;;;;;7.63;5.93;;;21.70;49.80;;;;;;5094504;28;20107;-68
2022/05/13 03:08:23;;;;;;;6.85;6.15;;;21.70;49.80;;;;;;5094453;28;20028;-69
2022/05/13 03:10:49;;;;;;;6.85;5.93;;;21.70;49.90;;;;;;5094368;28;20535;-69
2022/05/13 03:13:18;;;;;;;7.13;6.13;;;21.70;49.90;;;;;;5094312;28;20049;-70
2022/05/13 03:15:44;;;;;;;8.63;5.85;;;21.80;50.00;;;;;;5094410;28;20570;-71
2022/05/13 03:18:10;;;;;;;6.88;5.80;;;21.80;50.00;;;;;;5094644;28;20137;-68
2022/05/13 03:20:36;;;;;;;7.53;6.00;;;21.80;50.00;;;;;;5094299;28;20035;-70
2022/05/13 03:23:02;;;;;;;7.90;5.97;;;21.80;50.10;;;;;;5094499;28;20032;-70
2022/05/13 03:25:29;;;;;;;6.47;5.65;;;21.80;50.10;;;;;;5094269;28;20190;-69
2022/05/13 03:27:55;;;;;;;7.63;5.70;;;21.80;50.10;;;;;;5075735;28;20028;-70
2022/05/13 03:30:23;;;;;;;7.63;5.43;;;21.80;50.10;;;;;;5094189;28;20104;-70
2022/05/13 03:32:49;;;;;;;8.13;5.70;;;21.90;50.20;;;;;;5094045;28;20123;-68
2022/05/13 03:35:16;;;;;;;5.95;5.20;;;21.90;50.20;;;;;;5093976;28;20034;-70
2022/05/13 03:37:42;;;;;;;7.10;5.72;;;21.90;50.10;;;;;;5093992;28;20035;-70
2022/05/13 03:40:09;;;;;;;6.25;5.43;;;21.90;50.20;;;;;;5075957;28;20036;-70
2022/05/13 03:42:38;;;;;;;6.30;5.10;;;21.90;50.20;;;;;;5093680;28;20148;-69
2022/05/13 03:45:06;;;;;;;6.50;5.05;;;21.90;50.20;;;;;;5093580;28;20020;-69
2022/05/13 03:47:31;;;;;;;8.43;5.10;;;22.00;50.20;;;;;;5093559;28;20020;-69
2022/05/13 03:49:58;;;;;;;7.35;4.95;;;22.00;50.20;;;;;;5094008;28;20039;-69
2022/05/13 03:52:23;;;;;;;5.30;4.80;;;22.00;50.80;;;;;;5093773;28;20050;-69
2022/05/13 03:54:49;;;;;;;5.88;4.50;;;22.00;50.10;;;;;;5093843;28;20028;-69
2022/05/13 03:57:15;;;;;;;5.15;4.65;;;22.10;50.10;;;;;;5093626;28;20047;-69
2022/05/13 03:59:41;;;;;;;5.00;4.35;;;22.10;50.10;;;;;;5093742;28;20032;-69
2022/05/13 04:02:06;;;;;;;7.07;4.60;;;22.20;50.00;;;;;;5093814;28;20140;-69
2022/05/13 04:08:56;;;;;;;5.88;4.70;;;22.20;50.00;;;;;;5093615;28;20462;-69
2022/05/13 04:10:04;;;;;;;5.60;4.50;;;22.20;49.90;;;;;;5093599;28;20421;-68
2022/05/13 04:17:59;;;;;;;;;;;22.20;49.70;;;;;;5094057;28;20169;-69
2022/05/13 04:20:25;;;;;;;5.25;3.65;;;22.30;50.20;;;;;;5093405;28;20014;-70
2022/05/13 04:22:51;;;;;;;5.10;4.00;;;22.30;49.50;;;;;;5093670;28;20032;-70
2022/05/13 04:25:17;;;;;;;6.28;3.83;;;22.30;49.50;;;;;;5093418;28;20584;-69
2022/05/13 04:27:43;;;;;;;4.47;3.95;;;22.30;49.40;;;;;;5093587;28;20021;-69
2022/05/13 04:30:10;;;;;;;4.93;4.03;;;22.40;49.40;;;;;;5093604;28;20036;-69
2022/05/13 04:32:35;;;;;;;5.35;3.80;;;22.40;49.40;;;;;;5093159;28;20036;-69
2022/05/13 04:35:01;;;;;;;4.60;3.60;;;22.40;49.40;;;;;;5093636;28;20023;-69
2022/05/13 04:37:27;;;;;;;4.32;3.63;;;22.40;49.30;;;;;;5093290;28;20103;-69
2022/05/13 04:39:53;;;;;;;5.88;3.67;;;22.50;49.30;;;;;;5093014;28;20028;-69
2022/05/13 04:45:05;;;;;;;5.63;3.65;;;22.50;49.20;;;;;;5093362;28;20043;-69
2022/05/13 04:50:15;;;;;;;5.53;3.38;;;22.50;49.10;;;;;;5093599;28;20169;-69
2022/05/13 04:52:40;;;;;;;5.35;3.40;;;22.50;49.00;;;;;;5092931;28;20102;-68
2022/05/13 04:55:07;;;;;;;3.15;2.85;;;22.50;49.00;;;;;;5093193;28;20464;-69
2022/05/13 04:57:32;;;;;;;3.80;3.40;;;22.40;48.90;;;;;;5094616;28;20028;-68
2022/05/13 04:59:58;;;;;;;4.55;3.40;;;22.50;49.00;;;;;;5097083;28;20039;-69
2022/05/13 05:02:23;;;;;;;4.03;3.13;;;22.50;49.00;;;;;;5097134;28;20500;-69
2022/05/13 05:04:49;;;;;;;3.45;3.00;;;22.40;48.90;;;;;;5096887;28;20021;-69
2022/05/13 05:07:15;;;;;;;3.88;3.30;;;22.40;48.90;;;;;;5096997;28;20028;-70
2022/05/13 05:09:40;;;;;;;4.57;3.30;;;22.40;48.90;;;;;;5096710;28;20037;-70
2022/05/13 05:12:08;;;;;;;3.25;2.80;;;22.40;48.80;;;;;;5096807;28;20032;-70
2022/05/13 05:14:33;;;;;;;4.18;2.75;;;22.40;48.80;;;;;;5096754;28;20028;-70
2022/05/13 05:16:59;;;;;;;2.83;2.50;;;22.40;48.80;;;;;;5096929;28;20386;-70
2022/05/13 05:19:25;;;;;;;2.92;2.65;;;22.40;48.70;;;;;;5096425;28;20104;-69
2022/05/13 05:21:51;;;;;;;2.83;2.55;;;22.40;48.70;;;;;;5096206;28;20462;-68
2022/05/13 05:24:17;;;;;;;2.50;2.30;;;22.40;48.70;;;;;;5078452;28;20077;-70
2022/05/13 05:26:42;;;;;;;4.40;2.70;;;22.50;48.60;;;;;;5096219;28;20048;-70
2022/05/13 05:29:08;;;;;;;3.47;2.45;;;22.50;48.60;;;;;;5096461;28;20031;-70
2022/05/13 05:31:34;;;;;;;2.40;2.20;;;22.50;48.50;;;;;;5096259;28;20039;-70
2022/05/13 05:34:00;;;;;;;4.00;2.45;;;22.50;48.50;;;;;;5096369;28;20479;-70
2022/05/13 05:36:25;;;;;;;1.67;1.58;;;22.50;48.50;;;;;;5096488;28;20058;-71
2022/05/13 05:38:51;;;;;;;1.48;1.38;;;22.40;47.50;;;;;;5096023;28;20118;-70
2022/05/13 05:41:18;;;;;;;1.48;1.30;;;22.20;47.00;;;;;;5074920;28;20097;-71
2022/05/13 05:43:44;;;;;;;2.95;1.30;;;22.00;47.10;;;;;;5087616;28;20028;-71
2022/05/13 05:46:09;;;;;;;1.33;1.23;;;21.80;47.10;;;;;;5090132;28;20028;-71
2022/05/13 05:48:35;;;;;;;1.10;1.00;;;21.60;47.10;;;;;;5086139;28;20059;-72
2022/05/13 05:51:01;;;;;;;1.50;1.30;;;21.50;47.00;;;;;;5089879;28;20093;-72
2022/05/13 05:59:00;;;;;;;1.42;1.17;;;21.10;46.80;;;;;;5089697;28;20101;-72
2022/05/13 06:01:27;;;;;;;0.93;0.90;;;21.00;46.80;;;;;;5094570;28;20031;-71
2022/05/13 06:03:53;;;;;;;1.08;0.90;;;21.00;46.70;;;;;;5093608;28;20047;-69
2022/05/13 06:06:19;;;;;;;1.10;1.00;;;20.90;46.30;;;;;;5089415;28;20738;-73
2022/05/13 06:08:44;;;;;;;2.15;1.10;;;20.90;46.30;;;;;;5113460;28;20126;-72
2022/05/13 06:11:11;;;;;;;1.80;0.82;;;20.90;46.30;;;;;;5115118;28;20102;-73
2022/05/13 06:13:37;;;;;;;1.05;1.05;;;20.90;46.30;;;;;;5115262;28;20050;-70
2022/05/13 06:16:04;;;;;;;1.60;0.95;;;20.90;46.20;;;;;;5096471;28;20427;-71
2022/05/13 06:18:30;;;;;;;2.28;0.80;;;20.90;46.00;;;;;;5083325;28;20020;-73
2022/05/13 06:20:55;;;;;;;0.93;0.93;;;20.90;46.00;;;;;;5105205;28;20028;-73
2022/05/13 06:23:21;;;;;;;0.80;0.80;;;20.90;46.10;;;;;;5094423;28;20016;-72
2022/05/13 06:25:47;;;;;;;1.13;1.08;;;20.90;46.00;;;;;;5094029;28;20452;-71
2022/05/13 06:28:13;;;;;;;1.05;0.98;;;20.80;45.90;;;;;;5094283;28;20024;-75
2022/05/13 06:30:39;;;;;;;0.93;0.93;;;20.80;45.90;;;;;;5091913;28;20055;-72
2022/05/13 06:33:05;;;;;;;2.40;0.98;;;20.80;45.80;;;;;;5093571;28;20058;-72
2022/05/13 06:35:33;;;;;;;1.75;0.98;;;20.60;45.70;;;;;;5075102;28;20121;-72
2022/05/13 06:37:59;;;;;;;0.88;0.88;;;20.50;45.80;;;;;;5093689;28;20035;-72
2022/05/13 06:40:26;;;;;;;1.05;1.00;;;20.50;45.90;;;;;;5071220;28;20572;-72
2022/05/13 06:42:52;;;;;;;0.98;0.90;;;20.40;46.00;;;;;;5091590;28;20027;-71
2022/05/13 06:45:19;;;;;;;2.30;0.90;;;20.40;46.00;;;;;;5094088;28;20024;-70
2022/05/13 06:47:45;;;;;;;1.05;0.80;;;20.40;46.30;;;;;;5068612;28;20070;-71
2022/05/13 06:50:16;;;;;;;2.00;1.05;;;20.40;46.20;;;;;;5054815;28;20040;-72
2022/05/13 06:52:42;;;;;;;2.20;0.77;;;20.50;46.40;;;;;;5055552;28;20094;-71
2022/05/13 06:55:09;;;;;;;1.27;0.90;;;20.60;46.30;;;;;;5074084;28;20094;-71
2022/05/13 06:57:37;;;;;;;1.50;1.00;;;20.70;46.30;;;;;;5074408;28;20108;-71
2022/05/13 07:00:07;;;;;;;1.23;0.90;;;20.80;46.20;;;;;;5074049;28;20045;-71
2022/05/13 07:02:33;;;;;;;1.65;1.02;;;21.00;46.10;;;;;;5056330;28;20027;-71
2022/05/13 07:04:59;;;;;;;0.85;0.85;;;21.10;46.00;;;;;;5074392;28;20032;-72
2022/05/13 07:07:24;;;;;;;1.77;0.90;;;21.20;45.80;;;;;;5074177;28;20032;-70
2022/05/13 07:09:50;;;;;;;0.68;0.68;;;21.30;45.70;;;;;;5056209;28;20059;-70
2022/05/13 07:12:16;;;;;;;1.58;0.65;;;21.30;45.50;;;;;;5074157;28;20074;-70
2022/05/13 07:14:42;;;;;;;1.08;0.88;;;21.40;45.40;;;;;;5074099;28;20029;-71
2022/05/13 07:17:08;;;;;;;0.50;0.50;;;21.50;45.40;;;;;;5073990;28;20032;-71
2022/05/13 07:19:33;;;;;;;0.57;0.57;;;21.60;45.50;;;;;;5073837;28;20033;-71
2022/05/13 07:22:00;;;;;;;0.75;0.70;;;21.60;45.40;;;;;;5074031;28;20033;-71
2022/05/13 07:24:26;;;;;;;0.60;0.60;;;21.70;45.30;;;;;;5056240;28;20459;-71
2022/05/13 07:26:52;;;;;;;0.80;0.80;;;21.80;45.30;;;;;;5074107;28;20121;-70
2022/05/13 07:29:18;;;;;;;1.02;0.75;;;21.90;45.10;;;;;;5072805;28;20082;-71
2022/05/13 07:31:43;;;;;;;2.33;0.80;;;22.00;45.10;;;;;;5074026;28;20031;-71
2022/05/13 07:34:09;;;;;;;1.05;0.80;;;22.00;45.00;;;;;;5073889;28;20115;-71
2022/05/13 07:36:35;;;;;;;0.73;0.73;;;22.30;45.00;;;;;;5073766;28;20024;-70
2022/05/13 07:41:45;;;;;;;1.92;0.68;;;22.20;44.70;;;;;;5073827;28;20035;-72
2022/05/13 07:44:11;;;;;;;1.48;0.80;;;22.30;44.60;;;;;;5073732;28;20113;-71
2022/05/13 07:46:39;;;;;;;0.80;0.80;;;22.30;44.50;;;;;;5073811;28;20370;-71
2022/05/13 07:49:06;;;;;;;0.90;0.90;;;22.40;44.50;;;;;;5072370;28;20024;-71
2022/05/13 07:51:32;;;;;;;0.85;0.70;;;22.40;44.40;;;;;;5073525;28;20025;-71
2022/05/13 07:53:58;;;;;;;0.73;0.70;;;22.50;44.40;;;;;;5073604;28;20052;-70
2022/05/13 07:56:24;;;;;;;1.33;0.80;;;22.40;44.30;;;;;;5073608;28;20458;-71
2022/05/13 07:58:49;;;;;;;0.70;0.70;;;22.50;44.30;;;;;;5073406;28;20449;-72
2022/05/13 08:01:16;;;;;;;0.85;0.65;;;22.50;44.20;;;;;;5073534;28;20068;-71
2022/05/13 08:03:43;;;;;;;0.60;0.60;;;22.60;44.10;;;;;;5073554;28;20462;-71
2022/05/13 08:06:11;;;;;;;2.17;0.77;;;22.60;44.10;;;;;;5072527;28;20028;-71
2022/05/13 08:08:42;;;;;;;0.70;0.70;;;22.60;44.00;;;;;;5072091;28;20538;-71
2022/05/13 08:11:11;;;;;;;0.70;0.70;;;22.60;43.90;;;;;;5089050;28;20450;-73
2022/05/13 08:13:38;;;;;;;0.77;0.77;;;22.60;43.90;;;;;;5073882;28;20028;-71
2022/05/13 08:16:06;;;;;;;0.85;0.80;;;22.60;43.80;;;;;;5088981;28;20036;-70
2022/05/13 08:18:32;;;;;;;0.73;0.73;;;22.70;43.80;;;;;;5088718;28;20020;-71
2022/05/13 08:20:58;;;;;;;1.13;0.75;;;22.70;43.70;;;;;;5072965;28;20483;-70
2022/05/13 08:23:23;;;;;;;1.77;0.63;;;22.70;43.60;;;;;;5072014;28;20166;-69
2022/05/13 08:25:49;;;;;;;1.00;0.90;;;22.80;43.60;;;;;;5071645;28;20486;-72
2022/05/13 08:28:17;;;;;;;0.70;0.70;;;22.80;43.60;;;;;;5071855;28;20032;-71
2022/05/13 08:30:44;;;;;;;0.75;0.75;;;22.80;43.50;;;;;;5088667;28;20060;-71
2022/05/13 08:33:10;;;;;;;0.52;0.52;;;22.80;43.40;;;;;;5075651;28;20028;-71
2022/05/13 08:35:46;;;;;;;0.63;0.63;;;22.80;43.30;;;;;;5075735;28;20111;-70
2022/05/13 08:38:16;;;;;;;0.90;0.90;;;22.90;43.30;;;;;;5075806;28;20025;-72
2022/05/13 08:40:52;;;;;;;0.70;0.70;;;22.90;43.30;;;;;;5077260;28;20090;-71
2022/05/13 08:43:43;;;;;;;0.70;0.70;;;22.90;43.10;;;;;;5077014;28;20471;-70
2022/05/13 08:46:29;;;;;;;1.02;0.73;;;23.00;42.90;;;;;;5070148;28;20040;-71
2022/05/13 08:48:55;;;;;;;1.63;0.70;;;23.00;42.90;;;;;;5076240;28;20072;-71
2022/05/13 08:51:51;;;;;;;0.65;0.60;;;23.00;43.00;;;;;;5076857;28;20117;-72
2022/05/13 08:54:20;;;;;;;2.38;1.00;;;23.10;42.80;;;;;;5076897;28;20482;-71
2022/05/13 08:56:55;;;;;;;1.20;0.80;;;23.10;42.90;;;;;;5076730;28;20362;-72
2022/05/13 08:59:25;;;;;;;0.65;0.65;;;23.10;42.80;;;;;;5076351;28;20535;-70
2022/05/13 09:02:13;;;;;;;0.80;0.80;;;23.10;42.70;;;;;;5076767;28;20107;-72
2022/05/13 09:04:43;;;;;;;0.85;0.82;;;23.20;42.60;;;;;;5076339;28;20106;-72
2022/05/13 09:07:16;;;;;;;0.70;0.70;;;23.20;42.70;;;;;;5076756;28;20028;-72
2022/05/13 09:09:45;;;;;;;0.85;0.75;;;23.20;42.60;;;;;;5076306;28;20462;-71
2022/05/13 09:12:33;;;;;;;0.82;0.70;;;23.20;42.60;;;;;;5076873;28;20025;-72
2022/05/13 09:15:16;;;;;;;0.80;0.80;;;23.30;42.40;;;;;;5076379;28;20033;-72
2022/05/13 09:18:05;;;;;;;1.02;0.90;;;23.30;42.40;;;;;;5076247;28;20035;-72
2022/05/13 09:20:40;;;;;;;0.80;0.80;;;23.30;42.20;;;;;;5075944;28;20119;-72
2022/05/13 09:23:10;;;;;;;0.88;0.75;;;23.30;42.30;;;;;;5091916;28;20024;-71
2022/05/13 09:26:09;;;;;;;0.95;0.85;;;23.30;42.30;;;;;;5091837;28;20114;-72
2022/05/13 09:28:38;;;;;;;2.28;0.88;;;23.40;42.10;;;;;;5075998;28;20032;-71
2022/05/13 09:31:15;;;;;;;1.17;0.90;;;23.50;42.20;;;;;;5076216;28;20029;-71
2022/05/13 09:33:45;;;;;;;0.80;0.80;;;23.50;42.10;;;;;;5075556;28;20029;-71
2022/05/13 09:36:22;;;;;;;0.85;0.80;;;23.60;42.10;;;;;;5075668;28;20028;-71
2022/05/13 09:38:52;;;;;;;0.82;0.60;;;23.70;41.90;;;;;;5075462;28;20390;-73
2022/05/13 09:41:26;;;;;;;0.77;0.70;;;23.80;41.90;;;;;;5075475;28;20046;-71
2022/05/13 09:43:53;;;;;;;1.48;0.88;;;23.80;41.70;;;;;;5075957;28;20484;-71
2022/05/13 09:46:35;;;;;;;0.80;0.80;;;23.80;41.70;;;;;;5074438;28;20044;-70
2022/05/13 09:49:03;;;;;;;0.77;0.70;;;23.90;41.50;;;;;;5075266;28;20363;-71
2022/05/13 09:51:37;;;;;;;1.05;0.90;;;23.90;41.60;;;;;;5075458;28;20028;-70
2022/05/13 09:54:22;;;;;;;0.93;0.93;;;24.10;41.60;;;;;;5075763;28;20033;-70
2022/05/13 09:56:52;;;;;;;0.77;0.77;;;24.10;41.30;;;;;;5090943;28;20027;-71
2022/05/13 09:59:22;;;;;;;1.75;0.70;;;24.20;41.40;;;;;;5090780;28;20067;-71
2022/05/13 10:01:48;;;;;;;0.90;0.70;;;24.30;41.30;;;;;;5075312;28;20473;-71
2022/05/13 10:04:20;;;;;;;0.73;0.73;;;24.40;41.20;;;;;;5075491;28;20055;-71
2022/05/13 10:06:47;;;;;;;0.80;0.80;;;24.50;41.10;;;;;;5074158;28;20031;-72
2022/05/13 10:15:39;;;;;;;0.80;0.80;;;24.90;40.60;;;;;;5075109;28;20386;-72
2022/05/13 10:18:11;;;;;;;1.10;0.70;;;25.00;40.70;;;;;;5074019;28;20031;-73
2022/05/13 10:20:43;;;;;;;0.68;0.68;;;25.10;40.50;;;;;;5073205;28;20032;-71
2022/05/13 10:23:25;;;;;;;2.25;0.70;;;25.20;40.40;;;;;;5090458;28;20056;-72
2022/05/13 10:26:25;;;;;;;1.48;0.80;;;25.20;40.10;;;;;;5074845;28;20131;-71
2022/05/13 10:29:13;;;;;;;2.38;0.85;;;25.30;40.30;;;;;;5040578;28;20036;-71
2022/05/13 10:31:42;;;;;;;1.33;0.80;;;25.30;40.00;;;;;;5075090;28;20378;-70
2022/05/13 10:34:29;;;;;;;1.38;0.70;;;25.30;40.10;;;;;;5056766;28;20495;-70
2022/05/13 10:37:04;;;;;;;1.05;0.85;;;25.40;40.00;;;;;;5074704;28;20031;-71
2022/05/13 10:39:46;;;;;;;1.52;0.90;;;25.40;40.10;;;;;;5074698;28;20067;-70
2022/05/13 10:42:34;;;;;;;4.22;0.90;;;25.40;40.00;;;;;;5056954;28;20032;-71
2022/05/13 10:45:15;;;;;;;1.65;0.80;;;25.50;39.70;;;;;;5064667;28;20040;-71
2022/05/13 10:47:45;;;;;;;2.30;0.75;;;25.50;39.80;;;;;;5056482;28;20029;-71
2022/05/13 10:50:23;;;;;;;1.23;0.70;;;25.50;39.80;;;;;;5074838;28;20020;-71
2022/05/13 10:53:05;;;;;;;1.00;0.80;;;25.50;39.70;;;;;;5074497;28;20036;-71
2022/05/13 10:55:51;;;;;;;0.80;0.80;;;25.50;39.70;;;;;;5055990;28;20466;-72
2022/05/13 10:58:39;;;;;;;0.80;0.80;;;25.40;39.50;;;;;;5074586;28;20035;-71
2022/05/13 11:01:39;;;;;;;1.30;0.70;;;25.40;39.50;;;;;;5074209;28;20035;-72
2022/05/13 11:04:22;;;;;;;0.70;0.70;;;25.40;39.70;;;;;;5074057;28;20028;-72
2022/05/13 11:07:15;;;;;;;3.03;1.20;;;25.30;39.60;;;;;;5074165;28;20025;-71
2022/05/13 11:09:55;;;;;;;1.42;0.98;;;25.30;39.70;;;;;;5074556;28;20033;-71
2022/05/13 11:12:34;;;;;;;2.92;0.90;;;25.30;39.70;;;;;;5073906;28;20492;-72
2022/05/13 11:15:03;;;;;;;1.10;1.00;;;25.30;39.80;;;;;;5074554;28;20035;-71
2022/05/13 11:17:37;;;;;;;1.08;0.90;;;25.20;39.70;;;;;;5074278;28;20470;-71
2022/05/13 11:20:03;;;;;;;1.33;0.90;;;25.20;39.60;;;;;;5073697;28;20047;-71
2022/05/13 11:22:40;;;;;;;1.25;1.00;;;25.20;39.70;;;;;;5074083;28;20359;-71
2022/05/13 11:28:20;;;;;;;1.05;0.88;;;25.30;39.70;;;;;;5073802;28;20054;-71
2022/05/13 11:31:07;;;;;;;1.15;1.02;;;25.40;39.50;;;;;;5073936;28;20056;-71
2022/05/13 11:33:40;;;;;;;1.23;1.00;;;25.40;39.50;;;;;;5073432;28;20029;-71
2022/05/13 11:36:18;;;;;;;1.20;1.10;;;25.50;39.60;;;;;;5073850;28;20078;-71
2022/05/13 11:39:02;;;;;;;1.10;0.80;;;25.50;39.50;;;;;;5073275;28;20024;-71
2022/05/13 11:41:53;;;;;;;2.45;0.90;;;25.50;39.50;;;;;;5073872;28;20112;-71
2022/05/13 11:44:33;;;;;;;1.20;1.00;;;25.50;39.50;;;;;;5056022;28;20047;-70
2022/05/13 11:47:16;;;;;;;2.97;1.08;;;25.50;39.50;;;;;;5073834;28;20041;-71
2022/05/13 11:49:45;;;;;;;3.00;1.00;;;25.50;39.40;;;;;;5056015;28;20055;-71
2022/05/13 11:52:14;;;;;;;1.08;1.00;;;25.50;39.40;;;;;;5055547;28;20390;-70
2022/05/13 11:54:41;;;;;;;1.33;0.90;;;25.50;39.30;;;;;;5073431;28;20081;-70
2022/05/13 11:57:23;;;;;;;2.53;1.10;;;25.50;39.40;;;;;;5073251;28;20417;-71
2022/05/13 12:00:12;;;;;;;1.27;1.05;;;25.50;39.30;;;;;;5073194;28;20036;-71
2022/05/13 12:03:01;;;;;;;1.73;0.85;;;25.50;39.40;;;;;;5072984;28;20025;-71
2022/05/13 12:05:30;;;;;;;0.77;0.75;;;25.50;39.30;;;;;;5073408;28;20035;-71
2022/05/13 12:08:07;;;;;;;1.48;1.10;;;25.60;39.40;;;;;;5054158;28;20029;-71
2022/05/13 12:10:56;;;;;;;1.25;1.10;;;25.60;39.20;;;;;;5073354;28;20032;-72
2022/05/13 12:13:38;;;;;;;1.13;1.02;;;25.50;39.10;;;;;;5073801;28;20028;-71
2022/05/13 12:16:26;;;;;;;1.30;1.10;;;25.50;38.80;;;;;;5055849;28;20024;-71
2022/05/13 12:19:01;;;;;;;1.55;0.90;;;25.50;39.00;;;;;;5073159;28;20032;-72
2022/05/13 12:21:48;;;;;;;2.05;1.10;;;25.40;39.10;;;;;;5055421;28;20031;-72
2022/05/13 12:24:13;;;;;;;0.85;0.85;;;25.40;39.20;;;;;;5073439;28;20086;-72
2022/05/13 12:26:51;;;;;;;1.70;1.20;;;25.40;39.20;;;;;;5073495;28;20052;-71
2022/05/13 12:29:18;;;;;;;1.23;1.10;;;25.50;39.20;;;;;;5073114;28;20032;-71
2022/05/13 12:32:06;;;;;;;1.20;1.10;;;25.40;39.10;;;;;;5055133;28;20074;-71
2022/05/13 12:38:02;;;;;;;1.88;0.90;;;25.40;39.20;;;;;;5073169;28;20031;-70
2022/05/13 12:40:41;;;;;;;0.77;0.77;;;25.40;39.10;;;;;;5073697;28;20112;-72
2022/05/13 12:43:16;;;;;;;4.05;1.10;;;25.40;39.20;;;;;;5055259;28;20027;-71
2022/05/13 12:46:04;;;;;;;1.75;1.20;;;25.50;39.20;;;;;;5072882;28;20033;-70
2022/05/13 12:48:30;;;;;;;1.35;0.90;;;25.40;39.30;;;;;;5061503;28;20094;-69
2022/05/13 12:51:11;;;;;;;1.85;1.08;;;25.40;39.20;;;;;;5055397;28;20032;-70
2022/05/13 12:53:40;;;;;;;0.90;0.82;;;25.40;39.90;;;;;;5072896;28;20047;-71
2022/05/13 12:56:33;;;;;;;1.10;0.98;;;25.30;39.30;;;;;;5072899;28;20100;-71
2022/05/13 12:59:26;;;;;;;1.92;1.05;;;25.30;39.10;;;;;;5054779;28;20405;-71
2022/05/13 13:01:57;;;;;;;1.48;0.90;;;25.20;39.30;;;;;;5073154;28;20025;-71
2022/05/13 13:04:26;;;;;;;1.13;1.02;;;25.20;39.30;;;;;;5054936;28;20489;-71
2022/05/13 13:06:53;;;;;;;1.95;1.15;;;25.30;39.40;;;;;;5072972;28;20493;-71
2022/05/13 13:09:20;;;;;;;1.73;1.10;;;25.40;39.50;;;;;;5054600;28;20425;-72
2022/05/13 13:12:31;;;;;;;1.15;0.70;;;25.50;39.40;;;;;;5054756;28;20378;-70
2022/05/13 13:15:06;;;;;;;1.00;1.00;;;25.70;39.10;;;;;;5072638;28;20024;-70
2022/05/13 13:17:44;;;;;;;1.15;1.05;;;25.80;39.10;;;;;;5054507;28;20028;-71
2022/05/13 13:20:14;;;;;;;1.80;1.10;;;26.00;39.10;;;;;;5075996;28;20035;-71
2022/05/13 13:22:53;;;;;;;1.75;1.00;;;26.10;39.00;;;;;;5058558;28;20039;-70
2022/05/13 13:25:37;;;;;;;1.52;1.10;;;26.10;38.80;;;;;;5061705;28;20057;-70
2022/05/13 13:28:05;;;;;;;1.02;0.90;;;26.20;38.70;;;;;;5075793;28;20039;-70
2022/05/13 13:30:32;;;;;;;1.17;0.88;;;26.20;38.80;;;;;;5091616;28;20040;-70
2022/05/13 13:33:00;;;;;;;1.70;0.95;;;26.20;38.80;;;;;;5075523;28;20035;-71
2022/05/13 13:35:36;;;;;;;1.60;0.82;;;26.30;39.00;;;;;;5075357;28;20056;-71
2022/05/13 13:38:05;;;;;;;3.47;1.05;;;26.50;39.30;;;;;;5074146;28;20070;-70
2022/05/13 13:40:43;;;;;;;0.73;0.70;;;26.80;39.20;;;;;;5075677;28;20040;-71
2022/05/13 13:43:13;;;;;;;2.83;1.15;;;27.00;38.80;;;;;;5075481;28;20505;-71